createdAt,value
2023-05-08T00:02:21.792Z,7.35
2023-05-08T00:04:51.107Z,9.95
2023-05-08T00:07:19.113Z,7.72
2023-05-08T00:09:46.903Z,7.20
2023-05-08T00:12:15.109Z,7.07
2023-05-08T00:14:45.277Z,5.57
2023-05-08T00:17:13.495Z,6.80
2023-05-08T00:19:41.436Z,7.50
2023-05-08T00:22:10.720Z,4.95
2023-05-08T00:24:38.560Z,6.10
2023-05-08T00:27:08.566Z,6.47
2023-05-08T00:29:36.349Z,6.05
2023-05-08T00:32:04.490Z,6.43
2023-05-08T00:34:32.485Z,5.30
2023-05-08T00:37:00.456Z,6.03
2023-05-08T00:39:30.680Z,5.63
2023-05-08T00:41:58.965Z,5.82
2023-05-08T00:44:26.844Z,6.00
2023-05-08T00:46:54.682Z,5.45
2023-05-08T00:49:22.660Z,4.85
2023-05-08T00:51:53.484Z,6.07
2023-05-08T00:54:25.624Z,4.75
2023-05-08T00:56:56.495Z,5.28
2023-05-08T00:59:25.779Z,5.47
2023-05-08T01:01:54.393Z,4.43
2023-05-08T01:04:24.691Z,5.05
2023-05-08T01:06:52.670Z,3.55
2023-05-08T01:09:20.488Z,5.43
2023-05-08T01:11:53.656Z,4.43
2023-05-08T01:14:30.846Z,6.22
2023-05-08T01:17:09.303Z,4.75
2023-05-08T01:20:04.067Z,4.70
2023-05-08T01:22:52.656Z,4.10
2023-05-08T01:25:59.341Z,6.20
2023-05-08T01:28:52.656Z,3.95
2023-05-08T01:31:27.109Z,5.50
2023-05-08T01:34:04.308Z,5.45
2023-05-08T01:36:40.973Z,5.05
2023-05-08T01:39:18.587Z,6.28
2023-05-08T01:41:54.940Z,4.80
2023-05-08T01:44:25.723Z,5.32
2023-05-08T01:46:54.825Z,8.57
2023-05-08T01:49:28.424Z,7.10
2023-05-08T01:52:01.440Z,6.22
2023-05-08T01:54:34.955Z,6.07
2023-05-08T01:57:04.634Z,7.00
2023-05-08T01:59:35.750Z,6.63
2023-05-08T02:02:06.306Z,5.93
2023-05-08T02:04:39.484Z,6.45
2023-05-08T02:07:09.028Z,6.53
2023-05-08T02:09:38.921Z,5.55
2023-05-08T02:12:10.101Z,7.10
2023-05-08T02:14:43.484Z,6.47
2023-05-08T02:17:13.554Z,6.80
2023-05-08T02:19:45.657Z,7.28
2023-05-08T02:22:16.225Z,7.10
2023-05-08T02:24:46.974Z,7.35
2023-05-08T02:27:16.055Z,8.20
2023-05-08T02:29:44.149Z,7.28
2023-05-08T02:32:12.333Z,6.55
2023-05-08T02:34:51.161Z,5.40
2023-05-08T02:37:29.427Z,6.20
2023-05-08T02:39:59.434Z,7.10
2023-05-08T02:42:27.619Z,7.65
2023-05-08T02:44:55.529Z,5.85
2023-05-08T02:47:28.497Z,6.93
2023-05-08T02:50:06.016Z,7.07
2023-05-08T02:52:42.622Z,7.68
2023-05-08T02:55:21.463Z,7.88
2023-05-08T02:57:58.355Z,8.05
2023-05-08T03:00:32.596Z,6.88
2023-05-08T03:03:04.259Z,4.68
2023-05-08T03:05:36.002Z,6.75
2023-05-08T03:08:07.583Z,5.90
2023-05-08T03:10:37.653Z,7.35
2023-05-08T03:13:09.120Z,7.80
2023-05-08T03:15:42.880Z,7.85
2023-05-08T03:18:14.804Z,8.88
2023-05-08T03:20:48.222Z,7.85
2023-05-08T03:23:19.249Z,8.18
2023-05-08T03:25:47.194Z,9.15
2023-05-08T03:28:18.607Z,8.27
2023-05-08T03:30:47.687Z,8.85
2023-05-08T03:33:18.660Z,8.77
2023-05-08T03:35:49.168Z,8.05
2023-05-08T03:38:17.497Z,8.90
2023-05-08T03:40:46.355Z,8.32
2023-05-08T03:43:16.511Z,9.82
2023-05-08T03:45:46.287Z,7.80
2023-05-08T03:48:15.187Z,9.48
2023-05-08T03:50:45.519Z,7.22
2023-05-08T03:53:15.659Z,8.07
2023-05-08T03:55:43.778Z,6.43
2023-05-08T03:58:25.927Z,7.45
2023-05-08T04:01:05.061Z,7.00
2023-05-08T04:03:45.232Z,7.60
2023-05-08T04:06:18.282Z,6.60
2023-05-08T04:08:54.909Z,8.57
2023-05-08T04:11:31.585Z,8.95
2023-05-08T04:14:07.655Z,9.00
2023-05-08T04:16:40.387Z,6.85
2023-05-08T04:19:16.196Z,6.40
2023-05-08T04:21:45.383Z,7.80
2023-05-08T04:24:16.488Z,8.88
2023-05-08T04:26:46.707Z,9.05
2023-05-08T04:29:16.433Z,9.82
2023-05-08T04:31:44.776Z,7.97
2023-05-08T04:34:13.709Z,6.82
2023-05-08T04:36:41.772Z,7.55
2023-05-08T04:39:09.536Z,8.40
2023-05-08T04:41:38.795Z,8.02
2023-05-08T04:44:07.074Z,7.78
2023-05-08T04:46:35.851Z,7.97
2023-05-08T04:49:03.705Z,7.75
2023-05-08T04:51:32.740Z,9.90
2023-05-08T04:54:01.111Z,9.10
2023-05-08T04:56:30.168Z,10.55
2023-05-08T04:58:59.382Z,10.07
2023-05-08T05:01:27.566Z,9.75
2023-05-08T05:03:55.696Z,10.57
2023-05-08T05:06:23.632Z,11.00
2023-05-08T05:08:51.417Z,10.73
2023-05-08T05:11:19.262Z,11.82
2023-05-08T05:13:46.986Z,11.73
2023-05-08T05:16:16.438Z,8.50
2023-05-08T05:18:44.355Z,8.07
2023-05-08T05:21:12.451Z,9.07
2023-05-08T05:23:45.517Z,10.55
2023-05-08T05:26:13.487Z,10.50
2023-05-08T05:28:41.787Z,10.18
2023-05-08T05:31:09.803Z,9.90
2023-05-08T05:33:39.593Z,10.30
2023-05-08T05:36:08.906Z,11.50
2023-05-08T05:38:36.733Z,11.88
2023-05-08T05:41:05.419Z,10.93
2023-05-08T05:43:34.162Z,12.90
2023-05-08T05:46:05.623Z,11.18
2023-05-08T05:48:34.649Z,10.25
2023-05-08T05:51:04.210Z,11.85
2023-05-08T05:53:32.099Z,10.95
2023-05-08T05:56:00.187Z,11.80
2023-05-08T05:58:29.380Z,12.45
2023-05-08T06:01:01.016Z,11.77
2023-05-08T06:03:29.249Z,10.55
2023-05-08T06:05:57.217Z,10.20
2023-05-08T06:08:28.404Z,9.85
2023-05-08T06:10:57.411Z,10.68
2023-05-08T06:13:25.435Z,9.35
2023-05-08T06:15:56.451Z,9.57
2023-05-08T06:18:25.351Z,11.27
2023-05-08T06:20:57.582Z,10.80
2023-05-08T06:23:25.605Z,10.75
2023-05-08T06:25:55.254Z,8.68
2023-05-08T06:28:25.940Z,8.88
2023-05-08T06:30:54.158Z,10.05
2023-05-08T06:33:23.573Z,14.13
2023-05-08T06:35:52.506Z,11.13
2023-05-08T06:38:20.268Z,11.00
2023-05-08T06:40:50.054Z,11.43
2023-05-08T06:43:19.245Z,9.93
2023-05-08T06:45:49.405Z,11.45
2023-05-08T06:48:17.262Z,8.55
2023-05-08T06:50:45.227Z,11.10
2023-05-08T06:53:13.209Z,10.45
2023-05-08T06:55:44.019Z,11.60
2023-05-08T06:58:12.344Z,10.93
2023-05-08T07:00:41.654Z,10.27
2023-05-08T07:03:09.557Z,10.63
2023-05-08T07:05:37.582Z,11.88
2023-05-08T07:08:05.712Z,11.60
2023-05-08T07:10:33.544Z,11.50
2023-05-08T07:13:03.648Z,12.10
2023-05-08T07:15:32.585Z,8.55
2023-05-08T07:18:01.962Z,12.20
2023-05-08T07:20:29.910Z,10.75
2023-05-08T07:22:57.760Z,10.77
2023-05-08T07:25:25.651Z,11.57
2023-05-08T07:27:53.623Z,11.48
2023-05-08T07:30:21.467Z,11.98
2023-05-08T07:32:49.283Z,12.90
2023-05-08T07:35:18.472Z,11.68
2023-05-08T07:37:46.403Z,10.60
2023-05-08T07:40:14.294Z,12.85
2023-05-08T07:42:45.996Z,13.18
2023-05-08T07:45:15.006Z,12.43
2023-05-08T07:47:50.242Z,13.27
2023-05-08T07:50:20.255Z,10.10
2023-05-08T07:52:50.160Z,11.05
2023-05-08T07:55:19.313Z,13.50
2023-05-08T07:57:47.271Z,14.52
2023-05-08T08:00:17.026Z,12.70
2023-05-08T08:02:46.176Z,12.13
2023-05-08T08:05:14.640Z,9.30
2023-05-08T08:07:44.066Z,11.32
2023-05-08T08:10:12.566Z,10.02
2023-05-08T08:12:42.714Z,11.73
2023-05-08T08:15:11.684Z,10.20
2023-05-08T08:17:39.736Z,8.38
2023-05-08T08:20:10.721Z,7.95
2023-05-08T08:22:38.946Z,10.35
2023-05-08T08:25:09.312Z,10.88
2023-05-08T08:27:37.083Z,7.93
2023-05-08T08:30:15.733Z,8.85
2023-05-08T08:32:45.535Z,7.38
2023-05-08T08:35:14.827Z,6.95
2023-05-08T08:37:43.546Z,7.10
2023-05-08T08:40:13.268Z,7.18
2023-05-08T08:42:43.109Z,7.88
2023-05-08T08:45:12.161Z,8.60
2023-05-08T08:47:41.785Z,8.55
2023-05-08T08:50:13.591Z,7.13
2023-05-08T08:52:48.423Z,7.70
2023-05-08T08:55:19.722Z,5.80
2023-05-08T08:57:56.148Z,6.25
2023-05-08T09:00:28.141Z,7.88
2023-05-08T09:02:56.087Z,9.63
2023-05-08T09:05:25.012Z,7.22
2023-05-08T09:07:55.669Z,8.48
2023-05-08T09:10:26.329Z,7.72
2023-05-08T09:12:54.424Z,7.38
2023-05-08T09:15:22.311Z,7.65
2023-05-08T09:17:50.179Z,9.13
2023-05-08T09:20:18.253Z,6.88
2023-05-08T09:22:46.808Z,10.02
2023-05-08T09:25:15.741Z,6.90
2023-05-08T09:27:45.695Z,9.05
2023-05-08T09:30:15.399Z,6.78
2023-05-08T09:32:45.025Z,9.93
2023-05-08T09:35:13.710Z,8.32
2023-05-08T09:37:42.891Z,7.57
2023-05-08T09:40:18.690Z,8.65
2023-05-08T09:42:48.597Z,8.43
2023-05-08T09:45:31.202Z,8.45
2023-05-08T09:47:59.953Z,8.75
2023-05-08T09:50:28.261Z,8.85
2023-05-08T09:52:58.672Z,8.68
2023-05-08T09:55:26.763Z,7.10
2023-05-08T09:57:58.050Z,7.70
2023-05-08T10:00:27.353Z,8.77
2023-05-08T10:02:57.132Z,7.25
2023-05-08T10:05:31.560Z,9.00
2023-05-08T10:08:00.835Z,9.02
2023-05-08T10:10:31.140Z,9.82
2023-05-08T10:13:01.826Z,8.05
2023-05-08T10:15:32.100Z,9.63
2023-05-08T10:18:05.488Z,7.05
2023-05-08T10:20:34.876Z,9.65
2023-05-08T10:23:04.327Z,6.97
2023-05-08T10:25:35.631Z,9.88
2023-05-08T10:28:14.191Z,7.38
2023-05-08T10:30:49.959Z,8.93
2023-05-08T10:33:21.887Z,8.50
2023-05-08T10:35:52.119Z,9.88
2023-05-08T10:38:21.027Z,9.43
2023-05-08T10:40:50.679Z,10.63
2023-05-08T10:43:20.576Z,9.35
2023-05-08T10:45:49.045Z,9.30
2023-05-08T10:48:30.037Z,8.32
2023-05-08T10:51:04.420Z,10.13
2023-05-08T10:53:38.330Z,9.07
2023-05-08T10:56:09.473Z,11.10
2023-05-08T10:58:40.338Z,10.10
2023-05-08T11:01:16.126Z,8.48
2023-05-08T11:03:46.392Z,9.35
2023-05-08T11:06:15.421Z,7.57
2023-05-08T11:08:54.634Z,8.63
2023-05-08T11:11:28.720Z,7.60
2023-05-08T11:14:10.776Z,10.73
2023-05-08T11:17:07.928Z,6.97
2023-05-08T11:19:37.588Z,10.07
2023-05-08T11:22:17.347Z,7.95
2023-05-08T11:24:50.278Z,8.50
2023-05-08T11:27:18.691Z,8.60
2023-05-08T11:30:24.776Z,8.43
2023-05-08T11:33:32.445Z,7.15
2023-05-08T11:36:02.356Z,7.35
2023-05-08T11:38:36.426Z,8.05
2023-05-08T11:41:06.540Z,9.32
2023-05-08T11:44:14.960Z,9.15
2023-05-08T11:46:53.636Z,9.77
2023-05-08T11:49:27.051Z,7.95
2023-05-08T11:52:00.116Z,9.38
2023-05-08T11:54:31.593Z,8.55
2023-05-08T11:56:59.738Z,9.93
2023-05-08T11:59:27.770Z,8.60
2023-05-08T12:02:07.659Z,7.63
2023-05-08T12:04:45.182Z,8.02
2023-05-08T12:07:13.279Z,7.38
2023-05-08T12:09:41.126Z,6.68
2023-05-08T12:12:08.942Z,7.13
2023-05-08T12:14:36.768Z,7.47
2023-05-08T12:17:05.943Z,7.00
2023-05-08T12:19:33.973Z,8.02
2023-05-08T12:22:01.849Z,7.72
2023-05-08T12:24:29.661Z,7.63
2023-05-08T12:26:57.456Z,7.55
2023-05-08T12:29:28.178Z,7.65
2023-05-08T12:31:58.566Z,8.77
2023-05-08T12:34:28.636Z,8.23
2023-05-08T12:37:04.041Z,8.20
2023-05-08T12:39:38.371Z,9.05
2023-05-08T12:42:06.366Z,8.05
2023-05-08T12:44:34.375Z,6.20
2023-05-08T12:47:02.528Z,6.97
2023-05-08T12:49:32.951Z,8.95
2023-05-08T12:52:05.669Z,8.30
2023-05-08T12:54:38.060Z,8.55
2023-05-08T12:57:12.942Z,6.50
2023-05-08T12:59:41.199Z,12.52
2023-05-08T13:02:17.598Z,13.02
2023-05-08T13:04:47.153Z,11.57
2023-05-08T13:07:15.329Z,11.20
2023-05-08T13:09:57.309Z,11.70
2023-05-08T13:12:27.323Z,11.68
2023-05-08T13:14:55.095Z,12.30
2023-05-08T13:17:23.024Z,12.50
2023-05-08T13:19:52.282Z,13.27
2023-05-08T13:22:22.958Z,13.02
2023-05-08T13:24:53.409Z,13.23
2023-05-08T13:27:21.734Z,10.50
2023-05-08T13:29:49.713Z,12.95
2023-05-08T13:32:17.764Z,13.30
2023-05-08T13:34:50.178Z,12.32
2023-05-08T13:37:21.373Z,16.13
2023-05-08T13:39:49.087Z,15.73
2023-05-08T13:42:16.930Z,16.65
2023-05-08T13:44:44.865Z,18.67
2023-05-08T13:47:12.673Z,16.67
2023-05-08T13:49:40.513Z,17.45
2023-05-08T13:52:08.480Z,15.93
2023-05-08T13:54:37.643Z,15.38
2023-05-08T13:57:06.012Z,16.30
2023-05-08T13:59:33.702Z,15.70
2023-05-08T14:02:03.610Z,12.63
2023-05-08T14:04:31.352Z,16.77
2023-05-08T14:06:59.243Z,15.52
2023-05-08T14:09:27.294Z,15.57
2023-05-08T14:11:56.663Z,16.67
2023-05-08T14:14:24.592Z,17.38
2023-05-08T14:16:52.530Z,17.70
2023-05-08T14:19:20.380Z,16.73
2023-05-08T14:21:48.632Z,16.70
2023-05-08T14:24:18.801Z,16.48
2023-05-08T14:26:47.908Z,13.15
2023-05-08T14:29:18.795Z,13.68
2023-05-08T14:31:50.606Z,17.50
2023-05-08T14:34:18.616Z,15.27
2023-05-08T14:36:46.722Z,17.42
2023-05-08T14:39:15.696Z,17.17
2023-05-08T14:44:27.426Z,17.20
2023-05-08T14:46:55.866Z,18.08
2023-05-08T14:49:36.871Z,17.35
2023-05-08T14:52:09.374Z,16.92
2023-05-08T14:54:39.587Z,16.42
2023-05-08T14:57:12.593Z,16.58
2023-05-08T14:59:52.239Z,16.48
2023-05-08T15:02:22.782Z,15.98
2023-05-08T15:04:50.813Z,11.73
2023-05-08T15:07:18.885Z,11.02
2023-05-08T15:09:48.377Z,13.65
2023-05-08T15:12:16.220Z,14.15
2023-05-08T15:14:45.480Z,14.38
2023-05-08T15:17:13.256Z,15.10
2023-05-08T15:19:42.410Z,16.05
2023-05-08T15:22:10.606Z,18.50
2023-05-08T15:24:39.221Z,16.73
2023-05-08T15:27:09.838Z,14.45
2023-05-08T15:29:39.697Z,16.92
2023-05-08T15:32:11.519Z,11.45
2023-05-08T15:34:40.731Z,12.80
2023-05-08T15:37:08.644Z,14.25
2023-05-08T15:39:37.125Z,16.52
2023-05-08T15:42:05.669Z,14.10
2023-05-08T15:44:52.696Z,16.95
2023-05-08T15:47:24.086Z,15.60
2023-05-08T15:49:51.922Z,13.82
2023-05-08T15:52:19.884Z,13.75
2023-05-08T15:54:47.964Z,14.13
2023-05-08T15:57:16.022Z,13.65
2023-05-08T15:59:44.191Z,14.40
2023-05-08T16:02:14.352Z,12.18
2023-05-08T16:04:44.361Z,13.25
2023-05-08T16:07:15.973Z,13.02
2023-05-08T16:09:44.299Z,14.88
2023-05-08T16:12:12.670Z,13.50
2023-05-08T16:14:41.047Z,12.13
2023-05-08T16:17:09.253Z,13.77
2023-05-08T16:19:40.444Z,13.52
2023-05-08T16:22:10.002Z,15.25
2023-05-08T16:24:38.202Z,16.65
2023-05-08T16:27:08.879Z,15.43
2023-05-08T16:29:39.519Z,16.20
2023-05-08T16:32:10.224Z,16.40
2023-05-08T16:34:39.158Z,16.50
2023-05-08T16:37:07.093Z,14.57
2023-05-08T16:39:37.189Z,17.13
2023-05-08T16:42:07.604Z,16.13
2023-05-08T16:44:36.341Z,15.38
2023-05-08T16:47:04.902Z,16.00
2023-05-08T16:49:34.307Z,16.75
2023-05-08T16:52:05.255Z,16.70
2023-05-08T16:54:35.189Z,14.50
2023-05-08T16:57:04.779Z,14.00
2023-05-08T16:59:32.978Z,16.15
2023-05-08T17:02:02.121Z,17.02
2023-05-08T17:04:30.965Z,15.45
2023-05-08T17:06:59.909Z,17.55
2023-05-08T17:09:30.114Z,17.58
2023-05-08T17:11:59.010Z,17.92
2023-05-08T17:14:28.270Z,17.33
2023-05-08T17:16:56.216Z,19.20
2023-05-08T17:19:26.426Z,14.98
2023-05-08T17:21:54.198Z,17.75
2023-05-08T17:24:22.448Z,16.05
2023-05-08T17:26:53.110Z,17.48
2023-05-08T17:29:21.202Z,18.17
2023-05-08T17:31:52.886Z,20.90
2023-05-08T17:34:22.534Z,17.80
2023-05-08T17:36:51.118Z,17.60
2023-05-08T17:39:21.000Z,15.25
2023-05-08T17:41:49.705Z,17.27
2023-05-08T17:44:18.020Z,15.15
2023-05-08T17:46:47.069Z,17.77
2023-05-08T17:49:19.230Z,18.45
2023-05-08T17:51:47.381Z,16.35
2023-05-08T17:54:15.340Z,11.63
2023-05-08T17:56:43.256Z,14.48
2023-05-08T17:59:11.597Z,11.82
2023-05-08T18:01:39.513Z,16.75
2023-05-08T18:04:07.437Z,14.48
2023-05-08T18:06:39.268Z,13.80
2023-05-08T18:09:07.084Z,16.25
2023-05-08T18:11:35.065Z,15.27
2023-05-08T18:14:02.812Z,17.23
2023-05-08T18:16:30.751Z,13.07
2023-05-08T18:18:58.727Z,13.60
2023-05-08T18:21:28.795Z,14.55
2023-05-08T18:23:58.027Z,13.07
2023-05-08T18:26:25.952Z,14.18
2023-05-08T18:28:53.736Z,13.55
2023-05-08T18:31:21.650Z,13.52
2023-05-08T18:33:49.509Z,11.63
2023-05-08T18:36:17.278Z,15.50
2023-05-08T18:38:45.077Z,14.65
2023-05-08T18:41:14.358Z,11.65
2023-05-08T18:43:42.414Z,10.18
2023-05-08T18:46:12.343Z,14.60
2023-05-08T18:48:40.489Z,11.70
2023-05-08T18:51:08.289Z,10.40
2023-05-08T18:53:38.523Z,13.20
2023-05-08T18:56:08.950Z,14.48
2023-05-08T18:58:38.234Z,14.18
2023-05-08T19:01:06.952Z,15.63
2023-05-08T19:03:34.880Z,14.98
2023-05-08T19:06:02.759Z,14.23
2023-05-08T19:08:30.664Z,11.95
2023-05-08T19:10:58.432Z,16.13
2023-05-08T19:13:28.733Z,14.25
2023-05-08T19:15:57.931Z,12.80
2023-05-08T19:18:31.450Z,13.30
2023-05-08T19:20:59.535Z,11.90
2023-05-08T19:23:27.568Z,13.80
2023-05-08T19:25:55.736Z,15.30
2023-05-08T19:28:23.836Z,15.25
2023-05-08T19:30:51.825Z,13.65
2023-05-08T19:33:21.397Z,15.57
2023-05-08T19:35:49.421Z,12.68
2023-05-08T19:38:17.264Z,13.38
2023-05-08T19:40:56.525Z,11.98
2023-05-08T19:43:24.817Z,14.30
2023-05-08T19:45:52.722Z,13.52
2023-05-08T19:48:22.041Z,14.95
2023-05-08T19:50:50.961Z,13.20
2023-05-08T19:53:19.916Z,17.02
2023-05-08T19:55:49.301Z,13.35
2023-05-08T19:58:18.140Z,17.20
2023-05-08T20:00:50.944Z,26.45
2023-05-08T20:03:22.590Z,54.10
2023-05-08T20:05:52.017Z,76.25
2023-05-08T20:08:20.268Z,69.82
2023-05-08T20:10:49.081Z,48.53
2023-05-08T20:13:17.557Z,41.05
2023-05-08T20:15:48.175Z,31.15
2023-05-08T20:18:16.091Z,26.63
2023-05-08T20:20:47.321Z,21.52
2023-05-08T20:23:15.162Z,21.23
2023-05-08T20:25:46.104Z,22.23
2023-05-08T20:28:13.970Z,19.80
2023-05-08T20:30:41.817Z,19.95
2023-05-08T20:33:09.668Z,19.67
2023-05-08T20:35:37.598Z,17.73
2023-05-08T20:38:06.688Z,19.50
2023-05-08T20:40:34.505Z,20.02
2023-05-08T20:43:02.391Z,17.00
2023-05-08T20:45:32.537Z,18.45
2023-05-08T20:48:00.444Z,19.90
2023-05-08T20:50:28.311Z,19.05
2023-05-08T20:52:56.146Z,21.05
2023-05-08T20:55:25.618Z,17.92
2023-05-08T20:57:53.630Z,19.77
2023-05-08T21:00:22.218Z,18.60
2023-05-08T21:02:49.977Z,20.90
2023-05-08T21:05:18.560Z,18.83
2023-05-08T21:07:46.333Z,17.45
2023-05-08T21:10:14.381Z,19.05
2023-05-08T21:12:45.377Z,14.35
2023-05-08T21:15:13.544Z,18.95
2023-05-08T21:17:41.645Z,19.20
2023-05-08T21:20:11.801Z,17.92
2023-05-08T21:22:42.325Z,18.38
2023-05-08T21:25:15.967Z,19.35
2023-05-08T21:27:45.198Z,17.55
2023-05-08T21:30:16.334Z,14.65
2023-05-08T21:32:45.314Z,16.83
2023-05-08T21:35:13.911Z,16.63
2023-05-08T21:37:42.056Z,14.45
2023-05-08T21:40:10.661Z,16.40
2023-05-08T21:42:41.602Z,14.05
2023-05-08T21:45:12.361Z,13.55
2023-05-08T21:47:40.320Z,18.67
2023-05-08T21:50:09.435Z,16.30
2023-05-08T21:52:37.260Z,18.75
2023-05-08T21:55:08.530Z,16.45
2023-05-08T21:57:36.830Z,12.77
2023-05-08T22:00:05.082Z,12.63
2023-05-08T22:02:34.363Z,15.43
2023-05-08T22:05:02.416Z,17.90
2023-05-08T22:07:30.236Z,17.88
2023-05-08T22:09:58.306Z,14.95
2023-05-08T22:12:26.226Z,16.05
2023-05-08T22:14:53.998Z,15.50
2023-05-08T22:17:21.808Z,18.35
2023-05-08T22:19:51.034Z,16.27
2023-05-08T22:22:18.821Z,15.82
2023-05-08T22:24:46.723Z,17.77
2023-05-08T22:27:14.604Z,12.63
2023-05-08T22:29:42.452Z,16.67
2023-05-08T22:32:10.405Z,20.08
2023-05-08T22:34:38.260Z,18.52
2023-05-08T22:37:07.549Z,17.73
2023-05-08T22:39:36.050Z,17.90
2023-05-08T22:42:04.314Z,15.23
2023-05-08T22:44:35.173Z,20.25
2023-05-08T22:47:03.671Z,16.42
2023-05-08T22:49:32.186Z,14.82
2023-05-08T22:52:00.045Z,18.02
2023-05-08T22:54:31.570Z,14.30
2023-05-08T22:56:59.475Z,13.60
2023-05-08T22:59:28.565Z,14.20
2023-05-08T23:01:56.323Z,17.40
2023-05-08T23:04:24.286Z,17.23
2023-05-08T23:06:52.199Z,17.00
2023-05-08T23:09:19.983Z,16.08
2023-05-08T23:11:49.934Z,15.10
2023-05-08T23:14:18.029Z,17.73
2023-05-08T23:16:46.051Z,19.25
2023-05-08T23:19:13.996Z,20.15
2023-05-08T23:21:41.715Z,16.90
2023-05-08T23:24:09.672Z,19.98
2023-05-08T23:26:37.685Z,18.23
2023-05-08T23:29:07.445Z,16.05
2023-05-08T23:31:37.724Z,13.38
2023-05-08T23:34:05.573Z,14.35
2023-05-08T23:36:33.819Z,16.45
2023-05-08T23:39:01.627Z,20.75
2023-05-08T23:41:29.398Z,18.25
2023-05-08T23:43:57.142Z,21.98
2023-05-08T23:46:26.312Z,20.83
2023-05-08T23:48:54.298Z,16.13
2023-05-08T23:51:22.152Z,17.38
2023-05-08T23:53:50.099Z,16.33
2023-05-08T23:56:18.073Z,15.73
2023-05-08T23:58:45.886Z,18.73
